createdAt,value
2022-12-01T00:01:06.794Z,5.57
2022-12-01T00:03:55.426Z,5.45
2022-12-01T00:06:43.990Z,5.55
2022-12-01T00:09:50.304Z,5.47
2022-12-01T00:12:43.483Z,5.57
2022-12-01T00:15:34.920Z,5.61
2022-12-01T00:18:23.622Z,5.53
2022-12-01T00:21:15.054Z,5.49
2022-12-01T00:24:03.539Z,5.51
2022-12-01T00:26:52.089Z,5.57
2022-12-01T00:29:41.931Z,5.62
2022-12-01T00:32:30.978Z,5.51
2022-12-01T00:35:19.551Z,5.55
2022-12-01T00:38:08.007Z,5.51
2022-12-01T00:40:56.481Z,5.56
2022-12-01T00:43:44.943Z,5.60
2022-12-01T00:46:37.909Z,5.69
2022-12-01T00:49:26.411Z,5.54
2022-12-01T00:52:15.226Z,5.46
2022-12-01T00:55:03.678Z,5.55
2022-12-01T00:57:52.110Z,5.60
2022-12-01T01:00:40.575Z,5.46
2022-12-01T01:03:31.328Z,5.43
2022-12-01T01:06:19.808Z,5.44
2022-12-01T01:09:08.316Z,5.51
2022-12-01T01:11:56.803Z,5.46
2022-12-01T01:14:45.560Z,5.48
2022-12-01T01:17:34.359Z,5.48
2022-12-01T01:20:24.159Z,5.38
2022-12-01T01:23:12.645Z,5.46
2022-12-01T01:26:05.380Z,5.32
2022-12-01T01:28:54.484Z,5.50
2022-12-01T01:31:42.954Z,5.44
2022-12-01T01:34:31.568Z,5.54
2022-12-01T01:37:21.773Z,5.40
2022-12-01T01:40:11.433Z,5.51
2022-12-01T01:42:59.904Z,5.47
2022-12-01T01:45:48.380Z,5.50
2022-12-01T01:48:37.778Z,5.45
2022-12-01T01:51:28.303Z,5.41
2022-12-01T01:54:20.500Z,5.41
2022-12-01T01:57:10.948Z,5.36
2022-12-01T02:00:02.915Z,5.36
2022-12-01T02:02:51.728Z,5.22
2022-12-01T02:05:40.810Z,5.29
2022-12-01T02:08:29.793Z,5.26
2022-12-01T02:11:49.343Z,5.24
2022-12-01T02:14:50.924Z,5.28
2022-12-01T02:17:46.586Z,5.27
2022-12-01T02:21:04.073Z,5.27
2022-12-01T02:24:42.749Z,5.31
2022-12-01T02:27:43.536Z,5.28
2022-12-01T02:30:41.850Z,4.97
2022-12-01T02:33:33.813Z,5.19
2022-12-01T02:36:28.496Z,5.05
2022-12-01T02:39:21.573Z,5.09
2022-12-01T02:42:33.987Z,4.95
2022-12-01T02:45:29.681Z,4.84
2022-12-01T02:48:23.711Z,4.87
2022-12-01T02:51:15.804Z,4.68
2022-12-01T02:54:04.879Z,4.92
2022-12-01T02:56:53.759Z,4.96
2022-12-01T02:59:43.535Z,4.95
2022-12-01T03:02:42.251Z,4.90
2022-12-01T03:05:39.324Z,4.88
2022-12-01T03:08:33.726Z,4.91
2022-12-01T03:11:35.218Z,4.96
2022-12-01T03:14:33.900Z,4.83
2022-12-01T03:17:29.026Z,4.91
2022-12-01T03:20:21.815Z,4.79
2022-12-01T03:23:14.300Z,4.86
2022-12-01T03:26:06.964Z,3.96
2022-12-01T03:28:57.787Z,4.61
2022-12-01T03:31:50.094Z,4.62
2022-12-01T03:34:41.647Z,4.42
2022-12-01T03:37:34.110Z,4.70
2022-12-01T03:40:27.480Z,4.60
2022-12-01T03:43:19.647Z,4.67
2022-12-01T03:46:11.783Z,4.71
2022-12-01T03:49:00.375Z,4.79
2022-12-01T03:51:51.618Z,4.68
2022-12-01T03:54:46.685Z,4.78
2022-12-01T03:57:39.808Z,4.83
2022-12-01T04:00:28.633Z,4.80
2022-12-01T04:03:19.088Z,4.81
2022-12-01T04:06:07.993Z,4.79
2022-12-01T04:08:56.502Z,4.68
2022-12-01T04:12:02.567Z,4.66
2022-12-01T04:14:52.402Z,4.64
2022-12-01T04:17:43.227Z,4.74
2022-12-01T04:20:31.649Z,4.66
2022-12-01T04:23:34.028Z,4.68
2022-12-01T04:26:22.480Z,4.58
2022-12-01T04:29:11.949Z,4.71
2022-12-01T04:32:01.796Z,4.72
2022-12-01T04:34:50.241Z,4.72
2022-12-01T04:37:39.273Z,4.69
2022-12-01T04:40:27.750Z,4.55
2022-12-01T04:43:16.233Z,4.57
2022-12-01T04:46:05.199Z,4.53
2022-12-01T04:48:55.029Z,4.59
2022-12-01T04:51:43.498Z,4.59
2022-12-01T04:54:32.040Z,4.60
2022-12-01T04:57:20.466Z,4.54
2022-12-01T05:00:13.243Z,4.55
2022-12-01T05:03:02.180Z,4.63
2022-12-01T05:06:01.941Z,4.57
2022-12-01T05:08:51.324Z,4.47
2022-12-01T05:11:39.729Z,4.59
2022-12-01T05:14:28.360Z,4.59
2022-12-01T05:17:16.798Z,4.61
2022-12-01T05:20:23.689Z,4.47
2022-12-01T05:23:16.791Z,4.65
2022-12-01T05:26:07.510Z,4.40
2022-12-01T05:28:55.980Z,4.55
2022-12-01T05:31:46.211Z,4.46
2022-12-01T05:34:34.748Z,4.55
2022-12-01T05:37:23.189Z,4.45
2022-12-01T05:40:13.842Z,4.54
2022-12-01T05:43:02.546Z,4.56
2022-12-01T05:45:51.097Z,4.62
2022-12-01T05:48:39.585Z,3.65
2022-12-01T05:51:28.054Z,4.49
2022-12-01T05:54:17.209Z,4.57
2022-12-01T05:57:07.201Z,4.63
2022-12-01T05:59:55.769Z,4.68
2022-12-01T06:02:44.817Z,4.67
2022-12-01T06:05:33.274Z,4.73
2022-12-01T06:08:21.723Z,4.58
2022-12-01T06:11:10.174Z,4.61
2022-12-01T06:14:00.005Z,4.58
2022-12-01T06:16:48.466Z,4.49
2022-12-01T06:19:36.957Z,4.61
2022-12-01T06:22:25.377Z,4.51
2022-12-01T06:25:13.894Z,4.51
2022-12-01T06:28:02.458Z,4.53
2022-12-01T06:30:54.506Z,4.65
2022-12-01T06:33:46.367Z,4.79
2022-12-01T06:36:34.882Z,4.75
2022-12-01T06:39:23.331Z,4.75
2022-12-01T06:42:12.010Z,4.67
2022-12-01T06:45:00.547Z,4.80
2022-12-01T06:47:54.248Z,5.05
2022-12-01T06:50:42.705Z,5.22
2022-12-01T06:53:31.265Z,5.10
2022-12-01T06:56:19.746Z,4.97
2022-12-01T06:59:08.810Z,4.94
2022-12-01T07:01:58.324Z,4.85
2022-12-01T07:04:48.393Z,4.89
2022-12-01T07:07:38.054Z,4.87
2022-12-01T07:10:27.698Z,4.87
2022-12-01T07:13:16.094Z,4.75
2022-12-01T07:16:05.207Z,4.37
2022-12-01T07:18:53.764Z,4.78
2022-12-01T07:21:43.613Z,4.75
2022-12-01T07:24:32.101Z,4.76
2022-12-01T07:27:20.561Z,4.68
2022-12-01T07:30:10.746Z,4.67
2022-12-01T07:32:59.193Z,4.78
2022-12-01T07:35:47.685Z,4.71
2022-12-01T07:38:37.848Z,4.66
2022-12-01T07:41:26.336Z,4.66
2022-12-01T07:44:14.930Z,4.65
2022-12-01T07:47:03.359Z,4.62
2022-12-01T07:49:52.010Z,4.62
2022-12-01T07:52:40.523Z,4.58
2022-12-01T07:55:30.397Z,4.25
2022-12-01T07:58:18.841Z,4.59
2022-12-01T08:01:08.260Z,4.56
2022-12-01T08:03:58.137Z,4.73
2022-12-01T08:06:46.619Z,4.71
2022-12-01T08:09:35.077Z,4.78
2022-12-01T08:12:24.917Z,4.74
2022-12-01T08:15:13.448Z,4.75
2022-12-01T08:18:03.551Z,4.92
2022-12-01T08:20:52.447Z,4.77
2022-12-01T08:23:41.540Z,4.81
2022-12-01T08:26:30.118Z,4.84
2022-12-01T08:29:20.536Z,4.77
2022-12-01T08:32:09.109Z,4.91
2022-12-01T08:34:57.652Z,4.87
2022-12-01T08:37:46.155Z,4.71
2022-12-01T08:40:34.684Z,4.82
2022-12-01T08:43:49.667Z,4.77
2022-12-01T08:46:35.140Z,4.77
2022-12-01T08:49:23.929Z,4.79
2022-12-01T08:52:12.453Z,4.84
2022-12-01T08:55:01.134Z,4.83
2022-12-01T08:57:49.662Z,4.88
2022-12-01T09:00:38.142Z,4.85
2022-12-01T09:03:27.986Z,4.99
2022-12-01T09:06:20.147Z,4.95
2022-12-01T09:09:09.273Z,4.90
2022-12-01T09:11:58.171Z,4.81
2022-12-01T09:14:49.834Z,4.96
2022-12-01T09:17:38.454Z,4.81
2022-12-01T09:20:32.396Z,4.82
2022-12-01T09:23:21.772Z,4.82
2022-12-01T09:26:13.539Z,4.78
2022-12-01T09:29:04.479Z,4.86
2022-12-01T09:31:56.005Z,4.81
2022-12-01T09:34:44.536Z,4.93
2022-12-01T09:37:34.411Z,4.89
2022-12-01T09:40:32.684Z,4.81
2022-12-01T09:43:22.974Z,4.78
2022-12-01T09:46:16.823Z,4.77
2022-12-01T09:49:05.542Z,4.76
2022-12-01T09:51:55.017Z,4.71
2022-12-01T09:54:45.129Z,5.02
2022-12-01T09:57:36.580Z,4.92
2022-12-01T10:00:27.152Z,4.88
2022-12-01T10:03:22.992Z,4.88
2022-12-01T10:06:27.304Z,4.99
2022-12-01T10:09:24.458Z,4.97
2022-12-01T10:12:16.614Z,4.99
2022-12-01T10:15:26.138Z,4.99
2022-12-01T10:18:24.466Z,4.88
2022-12-01T10:21:25.147Z,5.04
2022-12-01T10:24:22.874Z,5.09
2022-12-01T10:27:18.516Z,5.21
2022-12-01T10:30:10.648Z,4.78
2022-12-01T10:33:03.808Z,5.22
2022-12-01T10:35:52.757Z,5.07
2022-12-01T10:38:41.291Z,5.10
2022-12-01T10:41:31.684Z,5.05
2022-12-01T10:44:21.530Z,5.08
2022-12-01T10:47:18.650Z,5.06
2022-12-01T10:50:08.518Z,5.02
2022-12-01T10:52:57.026Z,5.00
2022-12-01T10:55:48.075Z,5.13
2022-12-01T10:58:44.573Z,5.13
2022-12-01T11:01:35.962Z,5.11
2022-12-01T11:04:45.897Z,5.13
2022-12-01T11:07:35.610Z,5.18
2022-12-01T11:10:25.541Z,5.27
2022-12-01T11:13:19.776Z,5.25
2022-12-01T11:16:10.784Z,5.27
2022-12-01T11:19:09.736Z,5.20
2022-12-01T11:21:59.913Z,5.21
2022-12-01T11:24:59.218Z,5.19
2022-12-01T11:27:50.863Z,5.22
2022-12-01T11:30:39.530Z,5.43
2022-12-01T11:33:29.157Z,5.40
2022-12-01T11:36:27.529Z,5.44
2022-12-01T11:39:23.864Z,5.45
2022-12-01T11:42:22.148Z,5.48
2022-12-01T11:45:25.490Z,5.33
2022-12-01T11:48:25.567Z,5.42
2022-12-01T11:51:27.665Z,5.36
2022-12-01T11:54:18.723Z,5.32
2022-12-01T11:57:33.151Z,5.37
2022-12-01T12:00:20.978Z,4.96
2022-12-01T12:03:20.917Z,5.38
2022-12-01T12:09:40.225Z,5.55
2022-12-01T12:12:44.592Z,5.64
2022-12-01T12:15:41.807Z,5.47
2022-12-01T12:18:45.042Z,5.63
2022-12-01T12:21:35.405Z,5.60
2022-12-01T12:24:37.884Z,5.65
2022-12-01T12:27:32.876Z,5.55
2022-12-01T12:30:24.288Z,5.52
2022-12-01T12:33:44.136Z,5.51
2022-12-01T12:36:41.456Z,5.60
2022-12-01T12:39:42.372Z,5.63
2022-12-01T12:42:37.878Z,5.57
2022-12-01T12:45:29.317Z,5.57
2022-12-01T12:48:25.867Z,5.56
2022-12-01T12:51:17.309Z,5.53
2022-12-01T12:54:14.958Z,5.69
2022-12-01T12:57:07.301Z,5.66
2022-12-01T12:59:59.264Z,5.71
2022-12-01T13:02:50.976Z,5.75
2022-12-01T13:05:43.913Z,5.72
2022-12-01T13:08:36.569Z,5.70
2022-12-01T13:11:28.148Z,5.67
2022-12-01T13:14:22.158Z,5.68
2022-12-01T13:17:17.688Z,5.66
2022-12-01T13:20:07.573Z,5.71
2022-12-01T13:22:57.470Z,5.74
2022-12-01T13:25:49.126Z,5.74
2022-12-01T13:28:40.798Z,5.73
2022-12-01T13:31:30.716Z,5.64
2022-12-01T13:34:23.098Z,5.72
2022-12-01T13:37:11.868Z,5.81
2022-12-01T13:40:10.514Z,5.82
2022-12-01T13:43:06.988Z,5.73
2022-12-01T13:46:03.449Z,5.67
2022-12-01T13:48:56.668Z,5.71
2022-12-01T13:52:22.045Z,5.85
2022-12-01T13:55:29.021Z,5.81
2022-12-01T13:58:26.463Z,5.79
2022-12-01T14:01:46.841Z,5.78
2022-12-01T14:04:37.188Z,5.73
2022-12-01T14:07:34.953Z,5.74
2022-12-01T14:10:30.217Z,5.72
2022-12-01T14:13:21.245Z,5.56
2022-12-01T14:16:10.732Z,5.67
2022-12-01T14:19:00.270Z,5.60
2022-12-01T14:21:50.509Z,5.72
2022-12-01T14:24:41.373Z,5.69
2022-12-01T14:27:38.372Z,5.52
2022-12-01T14:31:03.194Z,5.69
2022-12-01T14:33:54.251Z,5.68
2022-12-01T14:36:43.921Z,5.53
2022-12-01T14:39:36.040Z,5.70
2022-12-01T14:42:48.471Z,5.46
2022-12-01T14:45:41.928Z,5.68
2022-12-01T14:48:35.997Z,5.70
2022-12-01T14:51:28.286Z,5.35
2022-12-01T14:54:21.537Z,5.68
2022-12-01T14:57:16.575Z,5.63
2022-12-01T15:00:09.350Z,5.61
2022-12-01T15:02:59.448Z,5.60
2022-12-01T15:05:47.894Z,5.67
2022-12-01T15:08:45.784Z,5.66
2022-12-01T15:11:52.426Z,5.48
2022-12-01T15:14:49.224Z,5.60
2022-12-01T15:17:38.149Z,5.59
2022-12-01T15:20:32.198Z,5.61
2022-12-01T15:23:20.665Z,5.59
2022-12-01T15:26:18.069Z,5.62
2022-12-01T15:29:15.058Z,5.61
2022-12-01T15:32:07.965Z,5.64
2022-12-01T15:34:57.110Z,5.65
2022-12-01T15:37:46.037Z,5.62
2022-12-01T15:43:43.123Z,5.65
2022-12-01T15:46:34.178Z,5.59
2022-12-01T15:49:29.444Z,5.56
2022-12-01T15:52:18.702Z,5.57
2022-12-01T15:55:07.961Z,5.59
2022-12-01T15:57:56.897Z,5.61
2022-12-01T16:01:00.935Z,5.59
2022-12-01T16:03:53.273Z,5.59
2022-12-01T16:06:43.390Z,5.56
2022-12-01T16:09:35.604Z,5.58
2022-12-01T16:12:26.107Z,5.38
2022-12-01T16:15:18.368Z,5.56
2022-12-01T16:18:27.505Z,5.55
2022-12-01T16:21:17.141Z,5.52
2022-12-01T16:24:07.729Z,5.63
2022-12-01T16:26:59.569Z,5.55
2022-12-01T16:29:51.264Z,5.55
2022-12-01T16:32:41.825Z,5.57
2022-12-01T16:35:33.648Z,5.51
2022-12-01T16:38:24.532Z,5.54
2022-12-01T16:41:19.019Z,5.55
2022-12-01T16:44:27.554Z,5.38
2022-12-01T16:47:17.851Z,5.49
2022-12-01T16:50:07.318Z,5.53
2022-12-01T16:52:55.811Z,5.54
2022-12-01T16:55:47.690Z,5.51
2022-12-01T16:58:37.624Z,5.53
2022-12-01T17:01:26.176Z,5.37
2022-12-01T17:04:14.697Z,5.43
2022-12-01T17:07:03.235Z,5.48
2022-12-01T17:09:52.992Z,5.37
2022-12-01T17:12:41.772Z,5.27
2022-12-01T17:15:31.741Z,5.49
2022-12-01T17:18:21.751Z,5.48
2022-12-01T17:21:11.884Z,5.48
2022-12-01T17:24:00.394Z,5.46
2022-12-01T17:26:48.905Z,5.49
2022-12-01T17:29:44.468Z,5.50
2022-12-01T17:32:35.917Z,5.48
2022-12-01T17:35:24.468Z,5.50
2022-12-01T17:38:13.041Z,5.51
2022-12-01T17:41:05.679Z,5.42
2022-12-01T17:43:54.217Z,5.55
2022-12-01T17:46:42.836Z,5.49
2022-12-01T17:49:32.871Z,5.48
2022-12-01T17:52:26.662Z,5.52
2022-12-01T17:55:16.922Z,5.50
2022-12-01T17:58:05.452Z,5.44
2022-12-01T18:00:54.733Z,5.47
2022-12-01T18:03:43.451Z,5.45
2022-12-01T18:06:33.424Z,5.45
2022-12-01T18:09:22.212Z,5.47
2022-12-01T18:12:10.754Z,5.46
2022-12-01T18:14:59.308Z,5.23
2022-12-01T18:17:48.040Z,5.52
2022-12-01T18:20:41.113Z,5.39
2022-12-01T18:23:30.977Z,5.57
2022-12-01T18:26:21.939Z,5.49
2022-12-01T18:29:13.720Z,5.41
2022-12-01T18:32:02.202Z,5.52
2022-12-01T18:34:50.841Z,5.35
2022-12-01T18:37:40.385Z,5.59
2022-12-01T18:40:30.306Z,5.47
2022-12-01T18:43:18.828Z,5.33
2022-12-01T18:46:07.716Z,5.27
2022-12-01T18:49:00.688Z,5.37
2022-12-01T18:51:49.203Z,5.42
2022-12-01T18:54:37.698Z,5.37
2022-12-01T18:57:28.053Z,5.42
2022-12-01T19:00:17.166Z,5.35
2022-12-01T19:03:05.637Z,5.45
2022-12-01T19:05:54.192Z,5.42
2022-12-01T19:08:43.042Z,5.36
2022-12-01T19:11:31.876Z,5.43
2022-12-01T19:14:23.517Z,5.40
2022-12-01T19:17:12.030Z,5.36
2022-12-01T19:20:00.546Z,5.33
2022-12-01T19:22:49.066Z,5.32
2022-12-01T19:25:37.748Z,5.32
2022-12-01T19:28:26.304Z,5.36
2022-12-01T19:31:18.563Z,5.26
2022-12-01T19:34:07.399Z,5.34
2022-12-01T19:36:56.821Z,5.27
2022-12-01T19:39:45.392Z,5.36
2022-12-01T19:42:33.879Z,5.35
2022-12-01T19:45:22.417Z,5.31
2022-12-01T19:48:12.421Z,5.33
2022-12-01T19:51:01.310Z,5.18
2022-12-01T19:53:50.427Z,5.33
2022-12-01T19:56:38.904Z,5.32
2022-12-01T19:59:27.412Z,5.25
2022-12-01T20:02:15.890Z,5.35
2022-12-01T20:05:06.522Z,5.36
2022-12-01T20:07:55.053Z,5.38
2022-12-01T20:10:48.061Z,5.38
2022-12-01T20:13:39.131Z,5.39
2022-12-01T20:16:28.609Z,5.31
2022-12-01T20:19:17.170Z,5.25
2022-12-01T20:22:06.997Z,5.31
2022-12-01T20:24:55.497Z,5.26
2022-12-01T20:27:45.407Z,5.28
2022-12-01T20:30:33.963Z,5.27
2022-12-01T20:33:22.803Z,5.30
2022-12-01T20:36:11.720Z,5.25
2022-12-01T20:39:01.648Z,5.36
2022-12-01T20:41:50.152Z,5.38
2022-12-01T20:44:40.067Z,5.34
2022-12-01T20:47:28.619Z,5.28
2022-12-01T20:50:17.185Z,5.20
2022-12-01T20:53:05.996Z,5.19
2022-12-01T20:55:56.617Z,5.08
2022-12-01T20:58:45.182Z,5.13
2022-12-01T21:01:33.784Z,5.13
2022-12-01T21:04:22.473Z,5.15
2022-12-01T21:07:11.007Z,5.27
2022-12-01T21:09:59.507Z,5.16
2022-12-01T21:13:16.862Z,5.14
2022-12-01T21:16:10.838Z,5.14
2022-12-01T21:19:06.379Z,5.15
2022-12-01T21:21:54.843Z,5.10
2022-12-01T21:24:51.195Z,5.11
2022-12-01T21:27:39.972Z,5.14
2022-12-01T21:30:30.324Z,5.20
2022-12-01T21:33:28.402Z,5.16
2022-12-01T21:36:18.681Z,5.16
2022-12-01T21:39:14.905Z,5.20
2022-12-01T21:42:15.349Z,5.21
2022-12-01T21:45:07.157Z,5.25
2022-12-01T21:48:00.815Z,5.27
2022-12-01T21:50:54.031Z,5.27
2022-12-01T21:53:42.786Z,5.28
2022-12-01T21:56:32.155Z,5.35
2022-12-01T21:59:22.351Z,5.32
2022-12-01T22:02:30.615Z,5.30
2022-12-01T22:05:28.289Z,5.30
2022-12-01T22:08:24.555Z,5.27
2022-12-01T22:11:18.525Z,5.33
2022-12-01T22:14:14.125Z,5.23
2022-12-01T22:17:15.763Z,5.13
2022-12-01T22:20:18.853Z,5.22
2022-12-01T22:23:11.884Z,5.25
2022-12-01T22:26:00.394Z,5.19
2022-12-01T22:28:49.565Z,5.24
2022-12-01T22:31:38.055Z,5.00
2022-12-01T22:34:26.567Z,5.16
2022-12-01T22:37:15.901Z,5.09
2022-12-01T22:40:35.802Z,5.05
2022-12-01T22:43:27.126Z,5.08
2022-12-01T22:46:31.445Z,4.98
2022-12-01T22:49:22.263Z,5.07
2022-12-01T22:52:18.381Z,5.09
2022-12-01T22:55:14.975Z,5.05
2022-12-01T22:58:12.772Z,5.05
2022-12-01T23:01:03.718Z,5.02
2022-12-01T23:03:55.652Z,5.10
2022-12-01T23:07:00.320Z,5.14
2022-12-01T23:09:48.901Z,5.11
2022-12-01T23:12:37.879Z,4.95
2022-12-01T23:15:34.644Z,5.06
2022-12-01T23:18:24.873Z,5.13
2022-12-01T23:21:13.420Z,5.09
2022-12-01T23:24:03.404Z,5.12
2022-12-01T23:26:51.927Z,5.12
2022-12-01T23:29:40.413Z,5.14
2022-12-01T23:32:30.210Z,5.13
2022-12-01T23:35:19.401Z,5.18
2022-12-01T23:38:11.523Z,5.16
2022-12-01T23:41:02.053Z,5.18
2022-12-01T23:43:51.069Z,4.98
2022-12-01T23:46:39.587Z,5.21
2022-12-01T23:49:31.343Z,5.12
2022-12-01T23:52:21.051Z,5.05
2022-12-01T23:55:17.640Z,5.16
2022-12-01T23:58:06.155Z,5.12
